sensor_id;sensor_type;location;lat;lon;timestamp;P1;durP1;ratioP1;P2;durP2;ratioP2
52838;SDS011;39219;53.678;9.856;2023-04-25T00:01:02;19.02;;;6.78;;
52838;SDS011;39219;53.678;9.856;2023-04-25T00:03:29;17.13;;;6.93;;
52838;SDS011;39219;53.678;9.856;2023-04-25T00:05:58;16.67;;;6.18;;
52838;SDS011;39219;53.678;9.856;2023-04-25T00:08:26;23.58;;;5.80;;
52838;SDS011;39219;53.678;9.856;2023-04-25T00:10:53;15.70;;;5.13;;
52838;SDS011;39219;53.678;9.856;2023-04-25T00:13:20;22.40;;;5.93;;
52838;SDS011;39219;53.678;9.856;2023-04-25T00:15:47;18.40;;;4.97;;
52838;SDS011;39219;53.678;9.856;2023-04-25T00:18:13;18.85;;;4.72;;
52838;SDS011;39219;53.678;9.856;2023-04-25T00:20:40;20.70;;;4.72;;
52838;SDS011;39219;53.678;9.856;2023-04-25T00:23:11;23.23;;;4.80;;
52838;SDS011;39219;53.678;9.856;2023-04-25T00:25:37;21.63;;;4.15;;
52838;SDS011;39219;53.678;9.856;2023-04-25T00:28:03;23.77;;;4.82;;
52838;SDS011;39219;53.678;9.856;2023-04-25T00:30:30;23.20;;;4.60;;
52838;SDS011;39219;53.678;9.856;2023-04-25T00:32:56;22.38;;;4.88;;
52838;SDS011;39219;53.678;9.856;2023-04-25T00:35:23;20.67;;;4.85;;
52838;SDS011;39219;53.678;9.856;2023-04-25T00:37:49;16.50;;;3.97;;
52838;SDS011;39219;53.678;9.856;2023-04-25T00:40:17;19.83;;;4.22;;
52838;SDS011;39219;53.678;9.856;2023-04-25T00:42:43;20.33;;;4.22;;
52838;SDS011;39219;53.678;9.856;2023-04-25T00:45:12;18.65;;;4.63;;
52838;SDS011;39219;53.678;9.856;2023-04-25T00:47:40;15.27;;;4.53;;
52838;SDS011;39219;53.678;9.856;2023-04-25T00:50:07;23.50;;;4.60;;
52838;SDS011;39219;53.678;9.856;2023-04-25T00:52:34;19.65;;;4.28;;
52838;SDS011;39219;53.678;9.856;2023-04-25T00:55:01;15.70;;;4.00;;
52838;SDS011;39219;53.678;9.856;2023-04-25T00:57:29;19.25;;;4.93;;
52838;SDS011;39219;53.678;9.856;2023-04-25T00:59:55;20.95;;;4.80;;
52838;SDS011;39219;53.678;9.856;2023-04-25T01:02:22;18.25;;;4.63;;
52838;SDS011;39219;53.678;9.856;2023-04-25T01:04:50;21.73;;;4.72;;
52838;SDS011;39219;53.678;9.856;2023-04-25T01:07:17;20.23;;;5.43;;
52838;SDS011;39219;53.678;9.856;2023-04-25T01:09:43;18.48;;;4.63;;
52838;SDS011;39219;53.678;9.856;2023-04-25T01:12:10;23.63;;;4.60;;
52838;SDS011;39219;53.678;9.856;2023-04-25T01:14:38;22.35;;;5.13;;
52838;SDS011;39219;53.678;9.856;2023-04-25T01:17:05;22.20;;;4.72;;
52838;SDS011;39219;53.678;9.856;2023-04-25T01:19:34;21.25;;;5.10;;
52838;SDS011;39219;53.678;9.856;2023-04-25T01:22:02;17.20;;;4.55;;
52838;SDS011;39219;53.678;9.856;2023-04-25T01:24:29;20.83;;;4.70;;
52838;SDS011;39219;53.678;9.856;2023-04-25T01:26:58;21.08;;;4.45;;
52838;SDS011;39219;53.678;9.856;2023-04-25T01:29:25;17.73;;;4.43;;
52838;SDS011;39219;53.678;9.856;2023-04-25T01:31:52;21.67;;;4.72;;
52838;SDS011;39219;53.678;9.856;2023-04-25T01:34:19;18.25;;;4.70;;
52838;SDS011;39219;53.678;9.856;2023-04-25T01:36:47;20.77;;;4.45;;
52838;SDS011;39219;53.678;9.856;2023-04-25T01:39:16;18.50;;;4.43;;
52838;SDS011;39219;53.678;9.856;2023-04-25T01:41:43;18.15;;;4.13;;
52838;SDS011;39219;53.678;9.856;2023-04-25T01:44:10;17.88;;;4.32;;
52838;SDS011;39219;53.678;9.856;2023-04-25T01:46:37;16.58;;;3.97;;
52838;SDS011;39219;53.678;9.856;2023-04-25T01:49:03;16.58;;;4.10;;
52838;SDS011;39219;53.678;9.856;2023-04-25T01:51:30;16.73;;;4.82;;
52838;SDS011;39219;53.678;9.856;2023-04-25T01:53:57;19.98;;;4.55;;
52838;SDS011;39219;53.678;9.856;2023-04-25T01:56:25;17.63;;;4.10;;
52838;SDS011;39219;53.678;9.856;2023-04-25T01:58:55;17.38;;;3.83;;
52838;SDS011;39219;53.678;9.856;2023-04-25T02:01:22;18.45;;;4.22;;
52838;SDS011;39219;53.678;9.856;2023-04-25T02:03:49;17.90;;;3.92;;
52838;SDS011;39219;53.678;9.856;2023-04-25T02:06:15;17.60;;;4.28;;
52838;SDS011;39219;53.678;9.856;2023-04-25T02:08:42;19.65;;;4.07;;
52838;SDS011;39219;53.678;9.856;2023-04-25T02:11:08;20.27;;;4.35;;
52838;SDS011;39219;53.678;9.856;2023-04-25T02:13:36;16.80;;;4.53;;
52838;SDS011;39219;53.678;9.856;2023-04-25T02:16:02;17.33;;;3.90;;
52838;SDS011;39219;53.678;9.856;2023-04-25T02:18:29;11.40;;;3.38;;
52838;SDS011;39219;53.678;9.856;2023-04-25T02:20:56;22.83;;;4.32;;
52838;SDS011;39219;53.678;9.856;2023-04-25T02:23:22;19.25;;;4.05;;
52838;SDS011;39219;53.678;9.856;2023-04-25T02:25:49;14.93;;;4.07;;
52838;SDS011;39219;53.678;9.856;2023-04-25T02:28:16;21.58;;;3.80;;
52838;SDS011;39219;53.678;9.856;2023-04-25T02:30:44;15.80;;;3.85;;
52838;SDS011;39219;53.678;9.856;2023-04-25T02:33:11;18.90;;;4.10;;
52838;SDS011;39219;53.678;9.856;2023-04-25T02:35:37;15.15;;;3.97;;
52838;SDS011;39219;53.678;9.856;2023-04-25T02:38:03;20.33;;;4.05;;
52838;SDS011;39219;53.678;9.856;2023-04-25T02:40:30;19.83;;;4.20;;
52838;SDS011;39219;53.678;9.856;2023-04-25T02:42:56;14.38;;;4.00;;
52838;SDS011;39219;53.678;9.856;2023-04-25T02:45:23;17.48;;;4.32;;
52838;SDS011;39219;53.678;9.856;2023-04-25T02:47:51;20.00;;;3.80;;
52838;SDS011;39219;53.678;9.856;2023-04-25T02:50:17;16.05;;;3.83;;
52838;SDS011;39219;53.678;9.856;2023-04-25T02:52:44;19.58;;;4.05;;
52838;SDS011;39219;53.678;9.856;2023-04-25T02:55:11;18.33;;;4.00;;
52838;SDS011;39219;53.678;9.856;2023-04-25T02:57:38;17.25;;;4.45;;
52838;SDS011;39219;53.678;9.856;2023-04-25T03:00:05;16.70;;;3.45;;
52838;SDS011;39219;53.678;9.856;2023-04-25T03:02:32;18.85;;;4.28;;
52838;SDS011;39219;53.678;9.856;2023-04-25T03:05:00;23.70;;;4.20;;
52838;SDS011;39219;53.678;9.856;2023-04-25T03:07:28;16.50;;;3.90;;
52838;SDS011;39219;53.678;9.856;2023-04-25T03:09:54;12.45;;;3.50;;
52838;SDS011;39219;53.678;9.856;2023-04-25T03:12:21;20.58;;;4.00;;
52838;SDS011;39219;53.678;9.856;2023-04-25T03:14:48;18.00;;;3.72;;
52838;SDS011;39219;53.678;9.856;2023-04-25T03:17:14;18.48;;;4.18;;
52838;SDS011;39219;53.678;9.856;2023-04-25T03:19:41;16.75;;;3.95;;
52838;SDS011;39219;53.678;9.856;2023-04-25T03:22:09;16.70;;;3.83;;
52838;SDS011;39219;53.678;9.856;2023-04-25T03:24:35;18.17;;;3.88;;
52838;SDS011;39219;53.678;9.856;2023-04-25T03:27:02;18.38;;;3.38;;
52838;SDS011;39219;53.678;9.856;2023-04-25T03:29:28;16.05;;;3.75;;
52838;SDS011;39219;53.678;9.856;2023-04-25T03:31:55;18.10;;;3.50;;
52838;SDS011;39219;53.678;9.856;2023-04-25T03:34:21;18.40;;;3.55;;
52838;SDS011;39219;53.678;9.856;2023-04-25T03:36:48;16.92;;;3.90;;
52838;SDS011;39219;53.678;9.856;2023-04-25T03:39:16;17.92;;;3.58;;
52838;SDS011;39219;53.678;9.856;2023-04-25T03:41:43;14.48;;;3.80;;
52838;SDS011;39219;53.678;9.856;2023-04-25T03:44:09;19.95;;;4.03;;
52838;SDS011;39219;53.678;9.856;2023-04-25T03:46:36;16.55;;;3.50;;
52838;SDS011;39219;53.678;9.856;2023-04-25T03:49:02;18.02;;;4.03;;
52838;SDS011;39219;53.678;9.856;2023-04-25T03:51:29;14.95;;;3.45;;
52838;SDS011;39219;53.678;9.856;2023-04-25T03:53:55;16.77;;;3.30;;
52838;SDS011;39219;53.678;9.856;2023-04-25T03:56:23;13.85;;;3.63;;
52838;SDS011;39219;53.678;9.856;2023-04-25T03:58:50;19.02;;;3.95;;
52838;SDS011;39219;53.678;9.856;2023-04-25T04:01:16;18.02;;;4.22;;
52838;SDS011;39219;53.678;9.856;2023-04-25T04:03:43;13.05;;;3.47;;
52838;SDS011;39219;53.678;9.856;2023-04-25T04:06:09;11.95;;;3.25;;
52838;SDS011;39219;53.678;9.856;2023-04-25T04:08:38;14.10;;;3.35;;
52838;SDS011;39219;53.678;9.856;2023-04-25T04:11:04;18.00;;;3.72;;
52838;SDS011;39219;53.678;9.856;2023-04-25T04:13:32;16.83;;;3.85;;
52838;SDS011;39219;53.678;9.856;2023-04-25T04:15:59;13.77;;;2.95;;
52838;SDS011;39219;53.678;9.856;2023-04-25T04:18:25;12.98;;;3.63;;
52838;SDS011;39219;53.678;9.856;2023-04-25T04:20:51;12.32;;;3.10;;
52838;SDS011;39219;53.678;9.856;2023-04-25T04:23:18;17.95;;;3.85;;
52838;SDS011;39219;53.678;9.856;2023-04-25T04:25:46;12.13;;;3.17;;
52838;SDS011;39219;53.678;9.856;2023-04-25T04:28:12;10.88;;;3.20;;
52838;SDS011;39219;53.678;9.856;2023-04-25T04:30:40;15.52;;;3.65;;
52838;SDS011;39219;53.678;9.856;2023-04-25T04:33:07;13.93;;;3.33;;
52838;SDS011;39219;53.678;9.856;2023-04-25T04:35:34;15.80;;;3.65;;
52838;SDS011;39219;53.678;9.856;2023-04-25T04:38:00;12.55;;;2.72;;
52838;SDS011;39219;53.678;9.856;2023-04-25T04:40:27;13.18;;;3.45;;
52838;SDS011;39219;53.678;9.856;2023-04-25T04:42:55;19.20;;;4.43;;
52838;SDS011;39219;53.678;9.856;2023-04-25T04:45:22;10.77;;;3.20;;
52838;SDS011;39219;53.678;9.856;2023-04-25T04:47:50;13.27;;;3.28;;
52838;SDS011;39219;53.678;9.856;2023-04-25T04:50:17;13.35;;;3.53;;
52838;SDS011;39219;53.678;9.856;2023-04-25T04:52:44;14.32;;;3.72;;
52838;SDS011;39219;53.678;9.856;2023-04-25T04:55:10;20.40;;;3.80;;
52838;SDS011;39219;53.678;9.856;2023-04-25T04:57:36;12.75;;;3.47;;
52838;SDS011;39219;53.678;9.856;2023-04-25T05:00:04;14.60;;;3.22;;
52838;SDS011;39219;53.678;9.856;2023-04-25T05:02:33;15.50;;;3.63;;
52838;SDS011;39219;53.678;9.856;2023-04-25T05:05:01;17.58;;;3.88;;
52838;SDS011;39219;53.678;9.856;2023-04-25T05:07:27;15.55;;;3.63;;
52838;SDS011;39219;53.678;9.856;2023-04-25T05:09:53;14.60;;;3.42;;
52838;SDS011;39219;53.678;9.856;2023-04-25T05:12:20;15.95;;;3.50;;
52838;SDS011;39219;53.678;9.856;2023-04-25T05:14:46;12.35;;;3.28;;
52838;SDS011;39219;53.678;9.856;2023-04-25T05:17:13;13.35;;;2.80;;
52838;SDS011;39219;53.678;9.856;2023-04-25T05:19:40;12.18;;;3.03;;
52838;SDS011;39219;53.678;9.856;2023-04-25T05:22:08;10.70;;;3.15;;
52838;SDS011;39219;53.678;9.856;2023-04-25T05:24:34;12.43;;;3.03;;
52838;SDS011;39219;53.678;9.856;2023-04-25T05:27:01;10.82;;;2.90;;
52838;SDS011;39219;53.678;9.856;2023-04-25T05:29:27;10.95;;;2.60;;
52838;SDS011;39219;53.678;9.856;2023-04-25T05:31:54;10.70;;;3.00;;
52838;SDS011;39219;53.678;9.856;2023-04-25T05:34:20;10.00;;;2.90;;
52838;SDS011;39219;53.678;9.856;2023-04-25T05:36:47;16.92;;;3.42;;
52838;SDS011;39219;53.678;9.856;2023-04-25T05:39:15;9.45;;;2.95;;
52838;SDS011;39219;53.678;9.856;2023-04-25T05:41:42;12.15;;;2.75;;
52838;SDS011;39219;53.678;9.856;2023-04-25T05:44:09;13.00;;;2.83;;
52838;SDS011;39219;53.678;9.856;2023-04-25T05:46:35;9.07;;;2.80;;
52838;SDS011;39219;53.678;9.856;2023-04-25T05:49:02;14.80;;;3.58;;
52838;SDS011;39219;53.678;9.856;2023-04-25T05:51:29;11.25;;;3.58;;
52838;SDS011;39219;53.678;9.856;2023-04-25T05:53:56;11.00;;;2.78;;
52838;SDS011;39219;53.678;9.856;2023-04-25T05:56:24;13.90;;;2.95;;
52838;SDS011;39219;53.678;9.856;2023-04-25T05:58:50;14.75;;;3.00;;
52838;SDS011;39219;53.678;9.856;2023-04-25T06:01:17;12.05;;;2.97;;
52838;SDS011;39219;53.678;9.856;2023-04-25T06:03:43;13.25;;;2.78;;
52838;SDS011;39219;53.678;9.856;2023-04-25T06:06:10;12.98;;;2.75;;
52838;SDS011;39219;53.678;9.856;2023-04-25T06:08:37;13.32;;;3.10;;
52838;SDS011;39219;53.678;9.856;2023-04-25T06:11:04;12.35;;;2.95;;
52838;SDS011;39219;53.678;9.856;2023-04-25T06:13:32;10.90;;;3.15;;
52838;SDS011;39219;53.678;9.856;2023-04-25T06:15:59;14.88;;;3.55;;
52838;SDS011;39219;53.678;9.856;2023-04-25T06:18:25;11.55;;;3.10;;
52838;SDS011;39219;53.678;9.856;2023-04-25T06:20:52;10.00;;;2.78;;
52838;SDS011;39219;53.678;9.856;2023-04-25T06:23:18;12.30;;;3.53;;
52838;SDS011;39219;53.678;9.856;2023-04-25T06:25:45;11.65;;;3.33;;
52838;SDS011;39219;53.678;9.856;2023-04-25T06:28:11;16.52;;;3.20;;
52838;SDS011;39219;53.678;9.856;2023-04-25T06:30:39;14.70;;;3.78;;
52838;SDS011;39219;53.678;9.856;2023-04-25T06:33:06;15.75;;;3.47;;
52838;SDS011;39219;53.678;9.856;2023-04-25T06:35:33;13.05;;;2.90;;
52838;SDS011;39219;53.678;9.856;2023-04-25T06:38:00;13.25;;;2.97;;
52838;SDS011;39219;53.678;9.856;2023-04-25T06:40:26;16.38;;;3.78;;
52838;SDS011;39219;53.678;9.856;2023-04-25T06:42:53;12.00;;;2.95;;
52838;SDS011;39219;53.678;9.856;2023-04-25T06:45:19;12.75;;;3.30;;
52838;SDS011;39219;53.678;9.856;2023-04-25T06:47:47;14.63;;;2.90;;
52838;SDS011;39219;53.678;9.856;2023-04-25T06:50:14;14.00;;;2.90;;
52838;SDS011;39219;53.678;9.856;2023-04-25T06:52:40;15.45;;;3.42;;
52838;SDS011;39219;53.678;9.856;2023-04-25T06:55:07;11.32;;;3.03;;
52838;SDS011;39219;53.678;9.856;2023-04-25T06:57:34;8.52;;;2.72;;
52838;SDS011;39219;53.678;9.856;2023-04-25T07:00:00;11.90;;;2.88;;
52838;SDS011;39219;53.678;9.856;2023-04-25T07:02:30;10.85;;;2.85;;
52838;SDS011;39219;53.678;9.856;2023-04-25T07:04:58;11.77;;;2.42;;
52838;SDS011;39219;53.678;9.856;2023-04-25T07:07:24;6.50;;;1.98;;
52838;SDS011;39219;53.678;9.856;2023-04-25T07:09:51;7.65;;;2.25;;
52838;SDS011;39219;53.678;9.856;2023-04-25T07:12:17;8.60;;;2.55;;
52838;SDS011;39219;53.678;9.856;2023-04-25T07:14:44;5.63;;;2.20;;
52838;SDS011;39219;53.678;9.856;2023-04-25T07:17:10;8.52;;;2.30;;
52838;SDS011;39219;53.678;9.856;2023-04-25T07:19:37;9.43;;;2.22;;
52838;SDS011;39219;53.678;9.856;2023-04-25T07:22:06;10.20;;;2.42;;
52838;SDS011;39219;53.678;9.856;2023-04-25T07:24:32;10.73;;;2.40;;
52838;SDS011;39219;53.678;9.856;2023-04-25T07:26:59;12.65;;;2.60;;
52838;SDS011;39219;53.678;9.856;2023-04-25T07:29:26;12.02;;;2.60;;
52838;SDS011;39219;53.678;9.856;2023-04-25T07:31:52;12.70;;;2.53;;
52838;SDS011;39219;53.678;9.856;2023-04-25T07:34:19;13.95;;;3.00;;
52838;SDS011;39219;53.678;9.856;2023-04-25T07:36:46;7.53;;;2.40;;
52838;SDS011;39219;53.678;9.856;2023-04-25T07:39:14;9.35;;;2.55;;
52838;SDS011;39219;53.678;9.856;2023-04-25T07:41:40;10.93;;;2.70;;
52838;SDS011;39219;53.678;9.856;2023-04-25T07:44:06;9.82;;;2.38;;
52838;SDS011;39219;53.678;9.856;2023-04-25T07:46:33;13.57;;;2.67;;
52838;SDS011;39219;53.678;9.856;2023-04-25T07:48:59;11.32;;;2.60;;
52838;SDS011;39219;53.678;9.856;2023-04-25T07:51:26;11.60;;;2.47;;
52838;SDS011;39219;53.678;9.856;2023-04-25T07:53:52;7.60;;;2.38;;
52838;SDS011;39219;53.678;9.856;2023-04-25T07:56:20;10.90;;;2.47;;
52838;SDS011;39219;53.678;9.856;2023-04-25T07:58:47;12.00;;;2.78;;
52838;SDS011;39219;53.678;9.856;2023-04-25T08:01:13;11.52;;;2.97;;
52838;SDS011;39219;53.678;9.856;2023-04-25T08:03:40;8.23;;;1.90;;
52838;SDS011;39219;53.678;9.856;2023-04-25T08:06:06;8.90;;;2.50;;
52838;SDS011;39219;53.678;9.856;2023-04-25T08:08:33;9.25;;;1.70;;
52838;SDS011;39219;53.678;9.856;2023-04-25T08:10:59;5.95;;;1.67;;
52838;SDS011;39219;53.678;9.856;2023-04-25T08:13:27;6.72;;;2.20;;
52838;SDS011;39219;53.678;9.856;2023-04-25T08:15:54;10.48;;;2.25;;
52838;SDS011;39219;53.678;9.856;2023-04-25T08:18:20;8.73;;;2.33;;
52838;SDS011;39219;53.678;9.856;2023-04-25T08:20:47;8.73;;;2.50;;
52838;SDS011;39219;53.678;9.856;2023-04-25T08:23:13;13.00;;;2.65;;
52838;SDS011;39219;53.678;9.856;2023-04-25T08:25:40;10.52;;;2.30;;
52838;SDS011;39219;53.678;9.856;2023-04-25T08:28:06;10.48;;;2.53;;
52838;SDS011;39219;53.678;9.856;2023-04-25T08:30:34;15.95;;;2.67;;
52838;SDS011;39219;53.678;9.856;2023-04-25T08:33:00;7.25;;;1.90;;
52838;SDS011;39219;53.678;9.856;2023-04-25T08:35:27;8.80;;;2.28;;
52838;SDS011;39219;53.678;9.856;2023-04-25T08:37:54;9.98;;;2.20;;
52838;SDS011;39219;53.678;9.856;2023-04-25T08:40:21;8.70;;;2.42;;
52838;SDS011;39219;53.678;9.856;2023-04-25T08:42:51;12.25;;;2.80;;
52838;SDS011;39219;53.678;9.856;2023-04-25T08:45:19;11.30;;;2.25;;
52838;SDS011;39219;53.678;9.856;2023-04-25T08:47:48;13.27;;;2.80;;
52838;SDS011;39219;53.678;9.856;2023-04-25T08:50:17;7.20;;;1.67;;
52838;SDS011;39219;53.678;9.856;2023-04-25T08:52:46;10.88;;;2.45;;
52838;SDS011;39219;53.678;9.856;2023-04-25T08:55:14;8.30;;;1.73;;
52838;SDS011;39219;53.678;9.856;2023-04-25T08:57:42;10.18;;;2.10;;
52838;SDS011;39219;53.678;9.856;2023-04-25T09:00:09;7.97;;;1.75;;
52838;SDS011;39219;53.678;9.856;2023-04-25T09:02:36;9.02;;;1.90;;
52838;SDS011;39219;53.678;9.856;2023-04-25T09:05:05;10.68;;;2.00;;
52838;SDS011;39219;53.678;9.856;2023-04-25T09:07:34;9.73;;;2.25;;
52838;SDS011;39219;53.678;9.856;2023-04-25T09:10:01;7.38;;;1.92;;
52838;SDS011;39219;53.678;9.856;2023-04-25T09:12:28;10.07;;;2.38;;
52838;SDS011;39219;53.678;9.856;2023-04-25T09:15:05;11.02;;;1.92;;
52838;SDS011;39219;53.678;9.856;2023-04-25T09:17:33;11.38;;;2.38;;
52838;SDS011;39219;53.678;9.856;2023-04-25T09:20:08;11.48;;;2.50;;
52838;SDS011;39219;53.678;9.856;2023-04-25T09:22:36;10.68;;;2.65;;
52838;SDS011;39219;53.678;9.856;2023-04-25T09:25:07;11.30;;;2.25;;
52838;SDS011;39219;53.678;9.856;2023-04-25T09:27:34;12.77;;;2.67;;
52838;SDS011;39219;53.678;9.856;2023-04-25T09:30:01;8.18;;;1.80;;
52838;SDS011;39219;53.678;9.856;2023-04-25T09:32:27;8.05;;;2.00;;
52838;SDS011;39219;53.678;9.856;2023-04-25T09:34:55;10.30;;;1.80;;
52838;SDS011;39219;53.678;9.856;2023-04-25T09:37:24;8.68;;;1.83;;
52838;SDS011;39219;53.678;9.856;2023-04-25T09:39:52;9.48;;;2.00;;
52838;SDS011;39219;53.678;9.856;2023-04-25T09:42:21;8.55;;;2.30;;
52838;SDS011;39219;53.678;9.856;2023-04-25T09:44:49;10.13;;;2.45;;
52838;SDS011;39219;53.678;9.856;2023-04-25T09:47:18;13.50;;;2.33;;
52838;SDS011;39219;53.678;9.856;2023-04-25T09:49:46;9.80;;;1.80;;
52838;SDS011;39219;53.678;9.856;2023-04-25T09:52:14;9.63;;;1.90;;
52838;SDS011;39219;53.678;9.856;2023-04-25T09:54:43;8.90;;;2.08;;
52838;SDS011;39219;53.678;9.856;2023-04-25T09:57:11;10.32;;;2.25;;
52838;SDS011;39219;53.678;9.856;2023-04-25T09:59:39;7.57;;;1.80;;
52838;SDS011;39219;53.678;9.856;2023-04-25T10:02:09;5.93;;;1.45;;
52838;SDS011;39219;53.678;9.856;2023-04-25T10:04:37;7.15;;;1.40;;
52838;SDS011;39219;53.678;9.856;2023-04-25T10:07:05;9.88;;;1.95;;
52838;SDS011;39219;53.678;9.856;2023-04-25T10:09:33;7.57;;;1.90;;
52838;SDS011;39219;53.678;9.856;2023-04-25T10:12:06;9.95;;;2.08;;
52838;SDS011;39219;53.678;9.856;2023-04-25T10:14:33;6.07;;;1.75;;
52838;SDS011;39219;53.678;9.856;2023-04-25T10:17:00;6.03;;;1.73;;
52838;SDS011;39219;53.678;9.856;2023-04-25T10:19:27;8.05;;;1.60;;
52838;SDS011;39219;53.678;9.856;2023-04-25T10:21:55;9.55;;;2.20;;
52838;SDS011;39219;53.678;9.856;2023-04-25T10:24:28;8.32;;;2.00;;
52838;SDS011;39219;53.678;9.856;2023-04-25T10:26:55;11.77;;;2.72;;
52838;SDS011;39219;53.678;9.856;2023-04-25T10:29:24;6.53;;;1.70;;
52838;SDS011;39219;53.678;9.856;2023-04-25T10:31:51;11.00;;;2.45;;
52838;SDS011;39219;53.678;9.856;2023-04-25T10:34:18;10.07;;;2.22;;
52838;SDS011;39219;53.678;9.856;2023-04-25T10:36:49;8.60;;;2.00;;
52838;SDS011;39219;53.678;9.856;2023-04-25T10:39:21;8.55;;;1.80;;
52838;SDS011;39219;53.678;9.856;2023-04-25T10:41:52;10.48;;;2.47;;
52838;SDS011;39219;53.678;9.856;2023-04-25T10:44:20;7.28;;;1.92;;
52838;SDS011;39219;53.678;9.856;2023-04-25T10:46:47;7.70;;;2.13;;
52838;SDS011;39219;53.678;9.856;2023-04-25T10:49:28;6.78;;;1.50;;
52838;SDS011;39219;53.678;9.856;2023-04-25T10:52:10;11.05;;;2.30;;
52838;SDS011;39219;53.678;9.856;2023-04-25T10:54:39;9.85;;;1.83;;
52838;SDS011;39219;53.678;9.856;2023-04-25T10:57:06;8.40;;;1.95;;
52838;SDS011;39219;53.678;9.856;2023-04-25T10:59:33;8.40;;;1.70;;
52838;SDS011;39219;53.678;9.856;2023-04-25T11:02:01;5.38;;;1.65;;
52838;SDS011;39219;53.678;9.856;2023-04-25T11:04:38;3.33;;;1.35;;
52838;SDS011;39219;53.678;9.856;2023-04-25T11:07:09;3.90;;;1.02;;
52838;SDS011;39219;53.678;9.856;2023-04-25T11:09:40;5.03;;;1.30;;
52838;SDS011;39219;53.678;9.856;2023-04-25T11:12:07;6.30;;;1.25;;
52838;SDS011;39219;53.678;9.856;2023-04-25T11:14:35;7.50;;;1.50;;
52838;SDS011;39219;53.678;9.856;2023-04-25T11:17:03;10.23;;;2.13;;
52838;SDS011;39219;53.678;9.856;2023-04-25T11:19:30;7.53;;;1.77;;
52838;SDS011;39219;53.678;9.856;2023-04-25T11:21:57;12.98;;;2.03;;
52838;SDS011;39219;53.678;9.856;2023-04-25T11:24:25;10.48;;;2.58;;
52838;SDS011;39219;53.678;9.856;2023-04-25T11:26:52;7.90;;;1.98;;
52838;SDS011;39219;53.678;9.856;2023-04-25T11:29:21;10.23;;;1.73;;
52838;SDS011;39219;53.678;9.856;2023-04-25T11:31:48;9.00;;;1.75;;
52838;SDS011;39219;53.678;9.856;2023-04-25T11:34:18;7.80;;;1.50;;
52838;SDS011;39219;53.678;9.856;2023-04-25T11:36:45;5.22;;;1.35;;
52838;SDS011;39219;53.678;9.856;2023-04-25T11:39:12;4.93;;;1.77;;
52838;SDS011;39219;53.678;9.856;2023-04-25T11:41:40;6.70;;;1.48;;
52838;SDS011;39219;53.678;9.856;2023-04-25T11:44:07;8.18;;;1.88;;
52838;SDS011;39219;53.678;9.856;2023-04-25T11:46:34;7.72;;;1.67;;
52838;SDS011;39219;53.678;9.856;2023-04-25T11:49:00;5.30;;;1.60;;
52838;SDS011;39219;53.678;9.856;2023-04-25T11:51:29;6.63;;;1.73;;
52838;SDS011;39219;53.678;9.856;2023-04-25T11:53:55;7.38;;;1.30;;
52838;SDS011;39219;53.678;9.856;2023-04-25T11:56:22;6.18;;;1.45;;
52838;SDS011;39219;53.678;9.856;2023-04-25T11:58:55;5.85;;;1.55;;
52838;SDS011;39219;53.678;9.856;2023-04-25T12:01:29;7.27;;;1.40;;
52838;SDS011;39219;53.678;9.856;2023-04-25T12:03:56;6.55;;;1.42;;
52838;SDS011;39219;53.678;9.856;2023-04-25T12:06:25;5.32;;;1.55;;
52838;SDS011;39219;53.678;9.856;2023-04-25T12:09:04;10.15;;;1.92;;
52838;SDS011;39219;53.678;9.856;2023-04-25T12:11:39;5.60;;;1.60;;
52838;SDS011;39219;53.678;9.856;2023-04-25T12:14:07;7.65;;;2.33;;
52838;SDS011;39219;53.678;9.856;2023-04-25T12:16:39;7.90;;;1.55;;
52838;SDS011;39219;53.678;9.856;2023-04-25T12:19:07;6.15;;;1.50;;
52838;SDS011;39219;53.678;9.856;2023-04-25T12:21:33;7.82;;;1.70;;
52838;SDS011;39219;53.678;9.856;2023-04-25T12:24:10;11.10;;;1.70;;
52838;SDS011;39219;53.678;9.856;2023-04-25T12:26:45;8.65;;;1.60;;
52838;SDS011;39219;53.678;9.856;2023-04-25T12:29:17;5.18;;;1.67;;
52838;SDS011;39219;53.678;9.856;2023-04-25T12:31:44;6.97;;;1.85;;
52838;SDS011;39219;53.678;9.856;2023-04-25T12:34:11;5.03;;;1.40;;
52838;SDS011;39219;53.678;9.856;2023-04-25T12:36:37;10.05;;;2.13;;
52838;SDS011;39219;53.678;9.856;2023-04-25T12:39:04;6.30;;;1.50;;
52838;SDS011;39219;53.678;9.856;2023-04-25T12:41:33;6.70;;;1.58;;
52838;SDS011;39219;53.678;9.856;2023-04-25T12:44:00;6.30;;;1.92;;
52838;SDS011;39219;53.678;9.856;2023-04-25T12:46:26;6.20;;;1.83;;
52838;SDS011;39219;53.678;9.856;2023-04-25T12:48:53;6.50;;;1.50;;
52838;SDS011;39219;53.678;9.856;2023-04-25T12:51:20;5.40;;;1.40;;
52838;SDS011;39219;53.678;9.856;2023-04-25T12:53:49;8.50;;;1.70;;
52838;SDS011;39219;53.678;9.856;2023-04-25T12:56:16;7.60;;;1.88;;
52838;SDS011;39219;53.678;9.856;2023-04-25T12:58:44;4.72;;;1.38;;
52838;SDS011;39219;53.678;9.856;2023-04-25T13:01:10;5.95;;;1.80;;
52838;SDS011;39219;53.678;9.856;2023-04-25T13:03:38;7.63;;;1.77;;
52838;SDS011;39219;53.678;9.856;2023-04-25T13:06:05;6.65;;;2.00;;
52838;SDS011;39219;53.678;9.856;2023-04-25T13:08:32;8.13;;;2.10;;
52838;SDS011;39219;53.678;9.856;2023-04-25T13:10:59;10.30;;;1.90;;
52838;SDS011;39219;53.678;9.856;2023-04-25T13:13:26;9.45;;;2.53;;
52838;SDS011;39219;53.678;9.856;2023-04-25T13:15:54;10.50;;;1.90;;
52838;SDS011;39219;53.678;9.856;2023-04-25T13:18:22;8.43;;;2.10;;
52838;SDS011;39219;53.678;9.856;2023-04-25T13:20:51;9.13;;;2.35;;
52838;SDS011;39219;53.678;9.856;2023-04-25T13:23:18;8.95;;;2.30;;
52838;SDS011;39219;53.678;9.856;2023-04-25T13:25:45;8.38;;;1.90;;
52838;SDS011;39219;53.678;9.856;2023-04-25T13:28:11;7.63;;;2.15;;
52838;SDS011;39219;53.678;9.856;2023-04-25T13:30:38;8.30;;;2.35;;
52838;SDS011;39219;53.678;9.856;2023-04-25T13:33:06;6.80;;;2.08;;
52838;SDS011;39219;53.678;9.856;2023-04-25T13:35:33;5.97;;;2.05;;
52838;SDS011;39219;53.678;9.856;2023-04-25T13:38:00;5.25;;;1.67;;
52838;SDS011;39219;53.678;9.856;2023-04-25T13:40:27;7.63;;;2.08;;
52838;SDS011;39219;53.678;9.856;2023-04-25T13:42:54;9.32;;;2.58;;
52838;SDS011;39219;53.678;9.856;2023-04-25T13:45:21;8.60;;;2.05;;
52838;SDS011;39219;53.678;9.856;2023-04-25T13:47:48;9.18;;;2.28;;
52838;SDS011;39219;53.678;9.856;2023-04-25T13:50:16;7.68;;;1.75;;
52838;SDS011;39219;53.678;9.856;2023-04-25T13:52:43;4.70;;;1.73;;
52838;SDS011;39219;53.678;9.856;2023-04-25T13:55:10;7.97;;;2.00;;
52838;SDS011;39219;53.678;9.856;2023-04-25T13:57:36;6.30;;;2.17;;
52838;SDS011;39219;53.678;9.856;2023-04-25T14:00:03;4.97;;;1.92;;
52838;SDS011;39219;53.678;9.856;2023-04-25T14:02:33;6.85;;;1.95;;
52838;SDS011;39219;53.678;9.856;2023-04-25T14:05:00;9.20;;;2.20;;
52838;SDS011;39219;53.678;9.856;2023-04-25T14:07:28;8.65;;;1.70;;
52838;SDS011;39219;53.678;9.856;2023-04-25T14:09:55;10.05;;;2.30;;
52838;SDS011;39219;53.678;9.856;2023-04-25T14:12:22;6.97;;;1.98;;
52838;SDS011;39219;53.678;9.856;2023-04-25T14:14:49;6.35;;;1.67;;
52838;SDS011;39219;53.678;9.856;2023-04-25T14:17:15;8.55;;;1.70;;
52838;SDS011;39219;53.678;9.856;2023-04-25T14:19:42;48.88;;;3.10;;
52838;SDS011;39219;53.678;9.856;2023-04-25T14:22:10;15.52;;;2.35;;
52838;SDS011;39219;53.678;9.856;2023-04-25T14:24:38;8.57;;;2.22;;
52838;SDS011;39219;53.678;9.856;2023-04-25T14:27:05;7.95;;;1.40;;
52838;SDS011;39219;53.678;9.856;2023-04-25T14:29:31;8.35;;;1.60;;
52838;SDS011;39219;53.678;9.856;2023-04-25T14:31:58;7.20;;;1.80;;
52838;SDS011;39219;53.678;9.856;2023-04-25T14:34:25;9.20;;;1.60;;
52838;SDS011;39219;53.678;9.856;2023-04-25T14:36:51;8.38;;;2.00;;
52838;SDS011;39219;53.678;9.856;2023-04-25T14:39:18;6.70;;;1.85;;
52838;SDS011;39219;53.678;9.856;2023-04-25T14:41:46;7.97;;;1.90;;